Terminal Aerodrome Forecast
Issued by NWS

Home | Current Version | Previous Version | Text Only | Print | Product List | Glossary On
Versions: 1 2 3 4 5 6 7 8 9 10 11 12 13 14 15 16 17 18 19 20
000
FTAK31 PANC 192325
TAFACD
TAF
PACD 192325Z 2000/2024 31008KT P6SM SCT030 BKN045
      TEMPO 2000/2004 3SM -SN SCT020 BKN030
     FM200400 33011KT P6SM VCSH BKN035
     FM201200 34015G24KT P6SM SCT120
     FM202100 35022G32KT P6SM SCT100=

USA.gov is the U.S. government's official web portal to all federal, state and local government web resources and services.